Time;durP1;ratioP1;P1;durP2;ratioP2;P2;SDS_P1;SDS_P2;PMS_P1;PMS_P2;Temp;Humidity;BMP_temperature;BMP_pressure;BME280_temperature;BME280_humidity;BME280_pressure;Samples;Min_cycle;Max_cycle;Signal;HPM_P1;HPM_P2
2021/01/24 00:00:30;;;;;;;15.13;8.90;;;3.80;99.90;;;;;;5309937;27;20459;-73
2021/01/24 00:02:57;;;;;;;13.57;7.80;;;3.70;99.90;;;;;;5307519;27;20153;-73
2021/01/24 00:05:24;;;;;;;15.07;8.27;;;3.80;99.90;;;;;;5312052;27;20114;-74
2021/01/24 00:07:50;;;;;;;14.97;8.73;;;3.80;99.90;;;;;;5309708;27;20137;-73
2021/01/24 00:10:17;;;;;;;16.27;9.17;;;3.80;99.90;;;;;;5309853;27;20110;-73
2021/01/24 00:12:46;;;;;;;15.10;8.27;;;3.70;99.90;;;;;;5310439;27;20407;-74
2021/01/24 00:15:13;;;;;;;15.03;8.20;;;3.40;99.90;;;;;;5310174;27;20164;-74
2021/01/24 00:17:39;;;;;;;12.73;8.07;;;3.30;99.90;;;;;;5309787;27;20146;-73
2021/01/24 00:20:08;;;;;;;13.77;8.47;;;3.20;99.90;;;;;;5311023;27;20114;-73
2021/01/24 00:22:36;;;;;;;13.97;8.47;;;3.20;99.90;;;;;;5310883;27;20109;-73
2021/01/24 00:25:05;;;;;;;15.93;8.87;;;3.30;99.90;;;;;;5309927;27;20114;-73
2021/01/24 00:27:32;;;;;;;15.37;8.70;;;3.20;99.90;;;;;;5310338;27;20113;-74
2021/01/24 00:29:59;;;;;;;17.07;9.07;;;3.30;99.90;;;;;;5309254;27;20150;-73
2021/01/24 00:32:25;;;;;;;15.70;8.90;;;3.20;99.90;;;;;;5309446;27;20426;-73
2021/01/24 00:34:52;;;;;;;15.97;9.07;;;3.20;99.90;;;;;;5310299;27;20128;-74
2021/01/24 00:37:19;;;;;;;16.63;9.40;;;3.10;99.90;;;;;;5311820;27;20141;-73
2021/01/24 00:39:45;;;;;;;16.43;9.53;;;3.00;99.90;;;;;;5310718;27;20122;-73
2021/01/24 00:42:12;;;;;;;15.70;9.50;;;3.00;99.90;;;;;;5311400;27;20114;-73
2021/01/24 00:44:39;;;;;;;14.30;8.97;;;3.00;99.90;;;;;;5309715;27;20148;-73
2021/01/24 00:47:05;;;;;;;15.07;9.20;;;3.00;99.90;;;;;;5309624;27;20117;-74
2021/01/24 00:49:33;;;;;;;17.07;9.33;;;3.00;99.90;;;;;;5311093;27;20123;-74
2021/01/24 00:52:00;;;;;;;16.83;9.80;;;3.10;99.90;;;;;;5309384;27;20125;-74
2021/01/24 00:54:26;;;;;;;15.90;9.37;;;3.10;99.90;;;;;;5309346;27;20110;-74
2021/01/24 00:56:53;;;;;;;17.00;9.87;;;3.00;99.90;;;;;;5308560;27;20408;-74
2021/01/24 00:59:19;;;;;;;15.50;9.60;;;3.10;99.90;;;;;;5311029;27;20121;-73
2021/01/24 01:01:46;;;;;;;14.73;8.67;;;3.20;99.90;;;;;;5309548;27;20450;-74
2021/01/24 01:04:13;;;;;;;16.07;9.40;;;3.30;99.90;;;;;;5311330;27;20113;-74
2021/01/24 01:06:40;;;;;;;16.70;9.70;;;3.10;99.90;;;;;;5309635;27;20185;-74
2021/01/24 01:09:06;;;;;;;15.27;9.73;;;3.20;99.90;;;;;;5309354;27;20149;-74
2021/01/24 01:11:33;;;;;;;14.57;8.97;;;3.30;99.90;;;;;;5310367;27;20133;-74
2021/01/24 01:13:59;;;;;;;15.40;9.53;;;3.30;99.90;;;;;;5309487;27;20138;-74
2021/01/24 01:16:25;;;;;;;14.87;8.93;;;3.20;99.90;;;;;;5309415;27;20137;-74
2021/01/24 01:18:52;;;;;;;16.47;9.83;;;3.00;99.90;;;;;;5310027;27;20209;-74
2021/01/24 01:21:19;;;;;;;15.07;9.47;;;3.00;99.90;;;;;;5309474;27;20483;-74
2021/01/24 01:23:45;;;;;;;16.27;9.63;;;2.90;99.90;;;;;;5308844;27;20215;-74
2021/01/24 01:26:13;;;;;;;13.30;8.77;;;2.90;99.90;;;;;;5310521;27;20128;-74
2021/01/24 01:28:40;;;;;;;15.43;9.40;;;2.90;99.90;;;;;;5309845;27;20162;-74
2021/01/24 01:31:06;;;;;;;18.13;10.23;;;2.80;99.90;;;;;;5309930;27;20114;-74
2021/01/24 01:33:33;;;;;;;16.03;9.10;;;2.80;99.90;;;;;;5309453;27;20110;-74
2021/01/24 01:36:00;;;;;;;15.70;9.53;;;2.70;99.90;;;;;;5309365;27;20153;-74
2021/01/24 01:38:27;;;;;;;14.40;9.10;;;2.70;99.90;;;;;;5310053;27;20149;-73
2021/01/24 01:40:54;;;;;;;16.50;9.97;;;2.60;99.90;;;;;;5309485;27;20162;-73
2021/01/24 01:43:20;;;;;;;14.90;9.40;;;2.60;99.90;;;;;;5309660;27;20167;-73
2021/01/24 01:45:47;;;;;;;15.67;9.73;;;2.70;99.90;;;;;;5309233;27;20130;-74
2021/01/24 01:48:16;;;;;;;13.43;8.60;;;2.60;99.90;;;;;;5308453;27;20444;-73
2021/01/24 01:50:43;;;;;;;14.37;8.90;;;2.70;99.90;;;;;;5309247;27;20110;-73
2021/01/24 01:53:10;;;;;;;14.77;8.53;;;2.90;99.90;;;;;;5309184;27;20149;-73
2021/01/24 01:55:37;;;;;;;15.57;9.03;;;2.80;99.90;;;;;;5310664;27;20121;-74
2021/01/24 01:58:03;;;;;;;15.60;9.43;;;2.80;99.90;;;;;;5311271;27;20114;-73
2021/01/24 02:00:30;;;;;;;15.07;8.90;;;2.70;99.90;;;;;;5309264;27;20158;-74
2021/01/24 02:03:15;;;;;;;14.10;8.20;;;2.70;99.90;;;;;;5308792;27;20154;-73
2021/01/24 02:05:55;;;;;;;13.63;8.40;;;2.60;99.90;;;;;;5309621;27;20133;-73
2021/01/24 02:08:51;;;;;;;14.57;8.60;;;2.60;99.90;;;;;;5308205;27;20339;-73
2021/01/24 02:11:22;;;;;;;13.10;8.37;;;2.50;99.90;;;;;;5309749;27;20114;-73
2021/01/24 02:14:06;;;;;;;14.83;8.90;;;2.60;99.90;;;;;;5310980;27;20145;-74
2021/01/24 02:16:35;;;;;;;15.63;8.83;;;2.70;99.90;;;;;;5310036;27;20109;-73
2021/01/24 02:19:05;;;;;;;12.93;8.30;;;2.60;99.90;;;;;;5310885;27;20114;-73
2021/01/24 02:21:34;;;;;;;13.67;8.80;;;2.60;99.90;;;;;;5309059;27;20174;-74
2021/01/24 02:24:09;;;;;;;13.33;8.90;;;2.60;99.90;;;;;;5309330;27;20327;-73
2021/01/24 02:26:54;;;;;;;14.37;9.10;;;2.80;99.90;;;;;;5309844;27;20114;-74
2021/01/24 02:29:32;;;;;;;16.60;8.63;;;2.80;99.90;;;;;;5310366;27;20122;-73
2021/01/24 02:32:02;;;;;;;14.00;8.70;;;2.80;99.90;;;;;;5310090;27;20486;-74
2021/01/24 02:34:32;;;;;;;12.77;8.13;;;2.90;99.90;;;;;;5308811;27;20536;-73
2021/01/24 02:37:00;;;;;;;12.53;8.57;;;2.90;99.90;;;;;;5309525;27;20141;-73
2021/01/24 02:39:28;;;;;;;13.27;8.77;;;2.90;99.90;;;;;;5308781;27;20487;-73
2021/01/24 02:41:54;;;;;;;14.50;9.47;;;2.80;99.90;;;;;;5308884;27;20345;-73
2021/01/24 02:44:22;;;;;;;15.37;8.73;;;2.90;99.90;;;;;;5311016;27;20125;-73
2021/01/24 02:46:48;;;;;;;15.40;8.63;;;2.90;99.90;;;;;;5308849;27;20419;-73
2021/01/24 02:49:15;;;;;;;15.47;8.60;;;2.80;99.90;;;;;;5310861;27;20126;-73
2021/01/24 02:51:43;;;;;;;14.27;8.87;;;2.70;99.90;;;;;;5309251;27;20113;-73
2021/01/24 02:54:11;;;;;;;13.53;8.43;;;2.70;99.90;;;;;;5310993;27;20173;-73
2021/01/24 02:56:38;;;;;;;13.47;9.17;;;2.90;99.90;;;;;;5309619;27;20407;-74
2021/01/24 02:59:05;;;;;;;14.13;8.57;;;3.00;99.90;;;;;;5308775;27;20151;-74
2021/01/24 03:01:32;;;;;;;14.80;9.20;;;3.00;99.90;;;;;;5308885;27;20334;-74
2021/01/24 03:03:58;;;;;;;13.40;8.97;;;3.00;99.90;;;;;;5310889;27;20309;-74
2021/01/24 03:06:25;;;;;;;14.13;8.93;;;3.00;99.90;;;;;;5308588;27;20180;-74
2021/01/24 03:08:52;;;;;;;15.37;9.17;;;3.10;99.90;;;;;;5309548;27;20159;-74
2021/01/24 03:11:20;;;;;;;13.57;8.50;;;3.10;99.90;;;;;;5310967;27;20497;-74
2021/01/24 03:13:54;;;;;;;14.63;8.63;;;3.20;99.90;;;;;;5308663;27;20119;-73
2021/01/24 03:16:21;;;;;;;14.53;8.97;;;3.30;99.90;;;;;;5308934;27;20416;-73
2021/01/24 03:18:50;;;;;;;14.83;9.20;;;3.30;99.90;;;;;;5308760;27;20130;-74
2021/01/24 03:21:18;;;;;;;15.60;9.40;;;3.40;99.90;;;;;;5310246;27;20156;-74
2021/01/24 03:23:44;;;;;;;13.93;9.33;;;3.40;99.90;;;;;;5310205;27;20110;-74
2021/01/24 03:26:11;;;;;;;14.80;9.90;;;3.40;99.90;;;;;;5310469;27;20121;-74
2021/01/24 03:28:38;;;;;;;13.30;8.63;;;3.30;99.90;;;;;;5309414;27;20122;-74
2021/01/24 03:31:06;;;;;;;16.13;9.07;;;3.40;99.90;;;;;;5310156;27;20432;-74
2021/01/24 03:33:37;;;;;;;14.07;9.37;;;3.40;99.90;;;;;;5310110;27;20141;-73
2021/01/24 03:36:05;;;;;;;15.27;9.17;;;3.40;99.90;;;;;;5310739;27;20114;-74
2021/01/24 03:38:31;;;;;;;15.40;9.50;;;3.30;99.90;;;;;;5310171;27;20377;-74
2021/01/24 03:40:58;;;;;;;16.60;9.73;;;3.40;99.90;;;;;;5312518;27;20155;-73
2021/01/24 03:43:25;;;;;;;15.30;9.63;;;3.40;99.90;;;;;;5310694;27;20114;-74
2021/01/24 03:45:51;;;;;;;15.80;9.63;;;3.40;99.90;;;;;;5311457;27;20141;-73
2021/01/24 03:48:18;;;;;;;14.23;9.43;;;3.40;99.90;;;;;;5309898;27;20110;-74
2021/01/24 03:50:45;;;;;;;15.40;9.67;;;3.40;99.90;;;;;;5310041;27;20148;-74
2021/01/24 03:53:11;;;;;;;17.33;10.03;;;3.30;99.90;;;;;;5310067;27;20109;-74
2021/01/24 03:55:38;;;;;;;14.87;9.67;;;3.30;99.90;;;;;;5309885;27;20114;-74
2021/01/24 03:58:05;;;;;;;15.67;9.77;;;3.30;99.90;;;;;;5312147;27;20153;-74
2021/01/24 04:00:31;;;;;;;14.87;9.73;;;3.40;99.90;;;;;;5309980;27;20348;-74
2021/01/24 04:02:58;;;;;;;15.40;9.50;;;3.40;99.90;;;;;;5311550;27;20374;-74
2021/01/24 04:05:24;;;;;;;16.70;10.00;;;3.40;99.90;;;;;;5309269;27;20117;-73
2021/01/24 04:07:51;;;;;;;15.50;9.43;;;3.40;99.90;;;;;;5310094;27;20380;-73
2021/01/24 04:10:17;;;;;;;15.33;9.87;;;3.40;99.90;;;;;;5310413;27;20142;-73
2021/01/24 04:12:44;;;;;;;15.93;9.87;;;3.40;99.90;;;;;;5309595;27;20170;-74
2021/01/24 04:15:11;;;;;;;18.03;10.37;;;3.40;99.90;;;;;;5309932;27;20117;-74
2021/01/24 04:17:37;;;;;;;17.07;10.17;;;3.40;99.90;;;;;;5309833;27;20501;-73
2021/01/24 04:20:05;;;;;;;15.57;9.53;;;3.50;99.90;;;;;;5309851;27;20130;-73
2021/01/24 04:22:31;;;;;;;14.23;9.27;;;3.40;99.90;;;;;;5309912;27;20118;-73
2021/01/24 04:24:58;;;;;;;15.47;9.27;;;3.30;99.90;;;;;;5309733;27;20154;-74
2021/01/24 04:27:24;;;;;;;15.47;9.63;;;3.40;99.90;;;;;;5309790;27;20369;-74
2021/01/24 04:29:51;;;;;;;14.53;9.20;;;3.40;99.90;;;;;;5309057;27;20118;-74
2021/01/24 04:32:18;;;;;;;15.80;9.40;;;3.40;99.90;;;;;;5309368;27;20110;-74
2021/01/24 04:34:44;;;;;;;17.07;10.20;;;3.40;99.90;;;;;;5309700;27;20114;-73
2021/01/24 04:37:11;;;;;;;14.63;9.60;;;3.30;99.90;;;;;;5309800;27;20164;-74
2021/01/24 04:39:37;;;;;;;14.93;9.97;;;3.40;99.90;;;;;;5309634;27;20413;-73
2021/01/24 04:42:04;;;;;;;14.13;9.53;;;3.30;99.90;;;;;;5309720;27;20129;-74
2021/01/24 04:44:32;;;;;;;15.80;9.90;;;3.30;99.90;;;;;;5309706;27;20163;-73
2021/01/24 04:46:59;;;;;;;16.40;9.87;;;3.30;99.90;;;;;;5309619;27;20114;-74
2021/01/24 04:49:26;;;;;;;15.20;9.50;;;3.30;99.90;;;;;;5309743;27;20121;-73
2021/01/24 04:51:53;;;;;;;15.83;10.07;;;3.30;99.90;;;;;;5309661;27;20347;-74
2021/01/24 04:54:20;;;;;;;15.60;9.80;;;3.40;99.90;;;;;;5310888;27;20156;-73
2021/01/24 04:56:46;;;;;;;15.70;9.63;;;3.40;99.90;;;;;;5309577;27;20120;-74
2021/01/24 04:59:13;;;;;;;15.67;9.77;;;3.40;99.90;;;;;;5309564;27;20111;-73
2021/01/24 05:01:43;;;;;;;17.17;10.43;;;3.40;99.90;;;;;;5310583;27;20114;-73
2021/01/24 05:04:13;;;;;;;16.80;10.13;;;3.40;99.90;;;;;;5309619;27;20113;-73
2021/01/24 05:06:40;;;;;;;16.83;10.13;;;3.40;99.90;;;;;;5310730;27;20156;-74
2021/01/24 05:09:06;;;;;;;16.20;10.10;;;3.40;99.90;;;;;;5309469;27;20161;-73
2021/01/24 05:11:33;;;;;;;17.80;10.37;;;3.40;99.90;;;;;;5309521;27;20351;-74
2021/01/24 05:14:16;;;;;;;16.67;10.13;;;3.40;99.90;;;;;;5312249;27;20178;-74
2021/01/24 05:16:43;;;;;;;20.47;10.33;;;3.40;99.90;;;;;;5309472;27;20193;-73
2021/01/24 05:19:10;;;;;;;19.53;10.40;;;3.40;99.90;;;;;;5311588;27;20111;-74
2021/01/24 05:21:38;;;;;;;18.27;10.93;;;3.40;99.90;;;;;;5309359;27;20129;-76
2021/01/24 05:24:10;;;;;;;19.33;11.53;;;3.40;99.90;;;;;;5310277;27;20110;-73
2021/01/24 05:26:44;;;;;;;18.30;10.80;;;3.40;99.90;;;;;;5309319;27;20115;-73
2021/01/24 05:29:19;;;;;;;18.53;11.13;;;3.40;99.90;;;;;;5309410;27;20124;-73
2021/01/24 05:31:46;;;;;;;18.37;11.50;;;3.40;99.90;;;;;;5311346;27;20113;-73
2021/01/24 05:34:15;;;;;;;19.70;11.60;;;3.30;99.90;;;;;;5309634;27;20114;-73
2021/01/24 05:36:43;;;;;;;18.43;11.47;;;3.30;99.90;;;;;;5309393;27;20114;-73
2021/01/24 05:39:10;;;;;;;19.20;11.20;;;3.30;99.90;;;;;;5309768;27;20325;-73
2021/01/24 05:41:36;;;;;;;20.73;11.47;;;3.30;99.90;;;;;;5310046;27;20458;-73
2021/01/24 05:44:11;;;;;;;20.33;11.67;;;3.30;99.90;;;;;;5310768;27;20357;-74
2021/01/24 05:46:38;;;;;;;20.67;11.87;;;3.20;99.90;;;;;;5309090;27;20148;-74
2021/01/24 05:49:06;;;;;;;21.60;12.57;;;3.20;99.90;;;;;;5309104;27;20445;-74
2021/01/24 05:51:34;;;;;;;18.83;11.77;;;3.20;99.90;;;;;;5309667;27;20372;-74
2021/01/24 05:54:00;;;;;;;23.20;12.70;;;3.10;99.90;;;;;;5309570;27;20117;-73
2021/01/24 05:56:28;;;;;;;24.97;12.83;;;3.10;99.90;;;;;;5309310;27;20166;-74
2021/01/24 05:59:02;;;;;;;29.17;15.43;;;3.10;99.90;;;;;;5309134;27;20444;-74
2021/01/24 06:01:30;;;;;;;27.60;15.67;;;3.10;99.90;;;;;;5308916;27;20190;-74
2021/01/24 06:03:59;;;;;;;31.90;16.93;;;3.10;99.90;;;;;;5309017;27;20113;-74
2021/01/24 06:06:26;;;;;;;31.77;17.63;;;3.10;99.90;;;;;;5308849;27;20165;-74
2021/01/24 06:08:52;;;;;;;30.47;17.47;;;3.10;99.90;;;;;;5309746;27;20121;-74
2021/01/24 06:11:19;;;;;;;33.00;17.77;;;3.00;99.90;;;;;;5308275;27;20129;-74
2021/01/24 06:13:53;;;;;;;34.00;17.57;;;3.00;99.90;;;;;;5308613;27;20113;-74
2021/01/24 06:16:32;;;;;;;32.57;18.27;;;3.00;99.90;;;;;;5309162;27;20125;-74
2021/01/24 06:19:03;;;;;;;35.00;18.90;;;2.90;99.90;;;;;;5308400;27;20129;-75
2021/01/24 06:21:38;;;;;;;37.37;19.60;;;2.90;99.90;;;;;;5309136;27;20133;-74
2021/01/24 06:24:13;;;;;;;35.40;20.00;;;2.90;99.90;;;;;;5310281;27;20109;-74
2021/01/24 06:26:45;;;;;;;35.83;19.37;;;2.80;99.90;;;;;;5308949;27;20137;-74
2021/01/24 06:29:13;;;;;;;37.77;19.90;;;2.90;99.90;;;;;;5289702;27;20122;-74
2021/01/24 06:31:46;;;;;;;36.50;19.27;;;2.90;99.90;;;;;;5308837;27;20151;-74
2021/01/24 06:34:13;;;;;;;38.80;19.27;;;2.90;99.90;;;;;;5309934;27;20125;-74
2021/01/24 06:37:05;;;;;;;36.77;19.77;;;2.90;99.90;;;;;;5309026;27;20125;-74
2021/01/24 06:39:55;;;;;;;33.33;17.50;;;2.90;99.90;;;;;;5308402;27;20396;-75
2021/01/24 06:42:48;;;;;;;31.30;17.10;;;2.90;99.90;;;;;;5309343;27;20114;-75
2021/01/24 06:45:27;;;;;;;31.43;16.90;;;2.90;99.90;;;;;;5310983;27;20150;-75
2021/01/24 06:47:56;;;;;;;29.73;16.20;;;2.80;99.90;;;;;;5308272;27;20110;-74
2021/01/24 06:50:46;;;;;;;29.43;15.40;;;2.80;99.90;;;;;;5308965;27;20130;-74
2021/01/24 06:53:14;;;;;;;26.67;14.63;;;2.80;99.90;;;;;;5309420;27;20110;-74
2021/01/24 06:56:06;;;;;;;24.93;14.90;;;2.80;99.90;;;;;;5308104;27;20124;-74
2021/01/24 06:58:34;;;;;;;30.30;15.67;;;2.80;99.90;;;;;;5309182;27;20114;-74
2021/01/24 07:01:29;;;;;;;26.70;14.57;;;2.70;99.90;;;;;;5308890;27;20114;-76
2021/01/24 07:04:18;;;;;;;27.57;15.97;;;2.70;99.90;;;;;;5219059;27;20135;-74
2021/01/24 07:06:49;;;;;;;29.17;15.10;;;2.50;99.90;;;;;;5219028;27;20644;-74
2021/01/24 07:09:27;;;;;;;31.10;16.33;;;2.40;99.90;;;;;;5219920;27;20286;-74
2021/01/24 07:11:55;;;;;;;28.07;15.43;;;2.40;99.90;;;;;;5219401;27;20130;-74
2021/01/24 07:14:39;;;;;;;29.50;16.07;;;2.50;99.90;;;;;;5219600;27;20119;-74
2021/01/24 07:17:14;;;;;;;30.93;16.27;;;2.40;99.90;;;;;;5221848;27;20130;-74
2021/01/24 07:19:49;;;;;;;31.70;17.10;;;2.30;99.90;;;;;;5220442;27;20163;-75
2021/01/24 07:22:19;;;;;;;29.43;15.60;;;2.40;99.90;;;;;;5219669;27;20123;-75
2021/01/24 07:24:47;;;;;;;29.53;15.67;;;2.30;99.90;;;;;;5219419;27;20124;-75
2021/01/24 07:27:21;;;;;;;28.53;15.53;;;2.40;99.90;;;;;;5219348;27;20123;-74
2021/01/24 07:29:48;;;;;;;30.60;16.93;;;2.40;99.90;;;;;;5218805;27;20206;-74
2021/01/24 07:32:19;;;;;;;31.87;16.47;;;2.40;99.90;;;;;;5219995;27;20143;-74
2021/01/24 07:34:48;;;;;;;31.57;16.43;;;2.40;99.90;;;;;;5222209;27;20484;-74
2021/01/24 07:37:15;;;;;;;30.03;16.20;;;2.40;99.90;;;;;;5218714;27;20374;-74
2021/01/24 07:39:47;;;;;;;31.47;15.77;;;2.50;99.90;;;;;;5220911;27;20120;-74
2021/01/24 07:42:14;;;;;;;31.07;16.30;;;2.60;99.90;;;;;;5310738;27;20110;-74
2021/01/24 07:44:42;;;;;;;28.27;15.40;;;2.60;99.90;;;;;;5308145;27;20157;-74
2021/01/24 07:47:10;;;;;;;30.60;16.43;;;2.60;99.90;;;;;;5308512;27;20513;-75
2021/01/24 07:49:38;;;;;;;29.47;15.63;;;2.70;99.90;;;;;;5309892;27;20133;-76
2021/01/24 07:52:05;;;;;;;27.33;15.43;;;2.70;99.90;;;;;;5308619;27;20129;-75
2021/01/24 07:54:34;;;;;;;28.50;15.67;;;2.80;99.90;;;;;;5308040;27;20110;-75
2021/01/24 07:57:01;;;;;;;31.00;16.60;;;2.80;99.90;;;;;;5308620;27;20153;-75
2021/01/24 07:59:28;;;;;;;27.80;15.60;;;2.80;99.90;;;;;;5310592;27;20117;-74
2021/01/24 08:01:55;;;;;;;28.90;15.63;;;2.80;99.90;;;;;;5308901;27;20159;-75
2021/01/24 08:04:25;;;;;;;28.63;16.20;;;2.80;99.90;;;;;;5308579;27;20128;-75
2021/01/24 08:06:52;;;;;;;29.90;16.27;;;2.80;99.90;;;;;;5309002;27;20141;-75
2021/01/24 08:09:19;;;;;;;29.97;16.30;;;2.80;99.90;;;;;;5309695;27;20121;-75
2021/01/24 08:11:46;;;;;;;28.50;15.87;;;2.90;99.90;;;;;;5310319;27;20160;-76
2021/01/24 08:14:14;;;;;;;29.23;16.27;;;2.90;99.90;;;;;;5309897;27;20124;-76
2021/01/24 08:16:43;;;;;;;28.07;15.60;;;3.00;99.90;;;;;;5309927;27;20113;-75
2021/01/24 08:19:14;;;;;;;28.40;16.27;;;3.00;99.90;;;;;;5310467;27;20118;-76
2021/01/24 08:21:43;;;;;;;29.47;15.73;;;2.90;99.90;;;;;;5310430;27;20124;-75
2021/01/24 08:24:10;;;;;;;29.10;15.70;;;2.90;99.90;;;;;;5309920;27;20399;-76
2021/01/24 08:26:37;;;;;;;28.17;15.80;;;3.00;99.90;;;;;;5311227;27;20378;-76
2021/01/24 08:29:05;;;;;;;29.53;16.33;;;3.10;99.90;;;;;;5309697;27;20140;-76
2021/01/24 08:31:34;;;;;;;31.50;16.23;;;3.10;99.90;;;;;;5309743;27;20128;-76
2021/01/24 08:34:01;;;;;;;29.83;16.23;;;3.00;99.90;;;;;;5309807;27;20152;-76
2021/01/24 08:36:29;;;;;;;31.47;16.80;;;3.10;99.90;;;;;;5309624;27;20114;-76
2021/01/24 08:38:58;;;;;;;29.60;17.03;;;3.20;99.90;;;;;;5309750;27;20114;-76
2021/01/24 08:41:32;;;;;;;31.30;17.23;;;3.30;99.90;;;;;;5309797;27;20114;-76
2021/01/24 08:44:10;;;;;;;32.13;17.77;;;3.20;99.90;;;;;;5312677;27;20417;-76
2021/01/24 08:46:44;;;;;;;31.53;17.07;;;3.20;99.90;;;;;;5309510;27;20469;-77
2021/01/24 08:49:25;;;;;;;31.10;17.23;;;3.20;99.90;;;;;;5308970;27;20117;-75
2021/01/24 08:51:54;;;;;;;28.23;15.87;;;3.20;99.90;;;;;;5309502;27;20351;-75
2021/01/24 08:54:30;;;;;;;31.07;16.70;;;3.10;99.90;;;;;;5309075;27;20432;-75
2021/01/24 08:57:19;;;;;;;30.77;16.07;;;3.10;99.90;;;;;;5309639;27;20115;-75
2021/01/24 08:59:49;;;;;;;29.00;16.27;;;3.00;99.90;;;;;;5309607;27;20384;-75
2021/01/24 09:02:32;;;;;;;29.57;16.13;;;2.80;99.90;;;;;;5309493;27;20118;-75
2021/01/24 09:05:11;;;;;;;31.50;17.07;;;2.80;99.90;;;;;;5310469;27;20172;-75
2021/01/24 09:07:44;;;;;;;32.13;17.37;;;2.80;99.90;;;;;;5290196;27;20141;-75
2021/01/24 09:10:23;;;;;;;30.87;17.07;;;2.90;99.90;;;;;;5311357;27;20121;-74
2021/01/24 09:12:54;;;;;;;30.63;16.07;;;2.90;99.90;;;;;;5310807;27;20181;-74
2021/01/24 09:15:22;;;;;;;30.57;16.47;;;2.90;99.90;;;;;;5309235;27;20125;-75
2021/01/24 09:17:54;;;;;;;30.03;16.47;;;2.80;99.90;;;;;;5309251;27;20153;-75
2021/01/24 09:20:22;;;;;;;30.87;17.20;;;2.90;99.90;;;;;;5311611;27;20114;-75
2021/01/24 09:22:49;;;;;;;32.87;16.90;;;2.80;99.90;;;;;;5309696;27;20147;-75
2021/01/24 09:25:17;;;;;;;29.30;16.53;;;2.90;99.90;;;;;;5309380;27;20432;-75
2021/01/24 09:27:43;;;;;;;32.80;17.23;;;2.80;99.90;;;;;;5309356;27;20109;-75
2021/01/24 09:30:13;;;;;;;30.70;16.87;;;2.80;99.90;;;;;;5309338;27;20153;-74
2021/01/24 09:32:40;;;;;;;31.47;17.10;;;2.80;99.90;;;;;;5309856;27;20152;-75
2021/01/24 09:35:08;;;;;;;31.87;17.23;;;2.80;99.90;;;;;;5309391;27;20421;-75
2021/01/24 09:37:35;;;;;;;32.73;17.57;;;2.80;99.90;;;;;;5311422;27;20124;-75
2021/01/24 09:40:03;;;;;;;32.47;17.33;;;2.90;99.90;;;;;;5308747;27;20471;-75
2021/01/24 09:42:30;;;;;;;28.87;17.03;;;2.90;99.90;;;;;;5309378;27;20141;-76
2021/01/24 09:44:58;;;;;;;32.00;16.70;;;2.90;99.90;;;;;;5309398;27;20150;-75
2021/01/24 09:47:29;;;;;;;33.27;17.33;;;2.80;99.90;;;;;;5308759;27;20170;-75
2021/01/24 09:49:55;;;;;;;32.80;17.37;;;2.80;99.90;;;;;;5309072;27;20122;-76
2021/01/24 09:52:22;;;;;;;31.23;16.90;;;2.80;99.90;;;;;;5309149;27;20141;-76
2021/01/24 09:54:48;;;;;;;31.93;17.63;;;2.80;99.90;;;;;;5309020;27;20113;-76
2021/01/24 09:57:15;;;;;;;32.37;17.43;;;2.80;99.90;;;;;;5309195;27;20385;-75
2021/01/24 09:59:41;;;;;;;32.50;17.47;;;2.80;99.90;;;;;;5310651;27;20150;-75
2021/01/24 10:02:08;;;;;;;31.60;16.97;;;2.90;99.90;;;;;;5308998;27;20131;-75
2021/01/24 10:04:35;;;;;;;33.23;18.20;;;2.90;99.90;;;;;;5309923;27;20126;-75
2021/01/24 10:07:01;;;;;;;30.27;17.50;;;2.90;99.90;;;;;;5307632;27;20203;-75
2021/01/24 10:09:28;;;;;;;31.67;17.33;;;2.90;99.90;;;;;;5307580;27;20122;-75
2021/01/24 10:11:54;;;;;;;31.70;17.13;;;2.90;99.90;;;;;;5308973;27;20114;-75
2021/01/24 10:14:21;;;;;;;29.10;16.53;;;2.90;99.90;;;;;;5310497;27;20384;-74
2021/01/24 10:16:47;;;;;;;31.17;16.90;;;2.90;99.90;;;;;;5309744;27;20129;-74
2021/01/24 10:19:14;;;;;;;29.57;17.07;;;2.80;99.90;;;;;;5311051;27;20221;-75
2021/01/24 10:21:41;;;;;;;37.47;18.30;;;2.90;99.90;;;;;;5309072;27;20155;-74
2021/01/24 10:24:08;;;;;;;31.43;17.73;;;2.90;99.90;;;;;;5308905;27;20156;-74
2021/01/24 10:26:34;;;;;;;34.23;17.97;;;2.90;99.90;;;;;;5308948;27;20154;-74
2021/01/24 10:29:01;;;;;;;33.50;17.80;;;2.90;99.90;;;;;;5308639;27;20173;-74
2021/01/24 10:31:27;;;;;;;31.27;17.60;;;2.90;99.90;;;;;;5309090;27;20129;-74
2021/01/24 10:33:54;;;;;;;31.00;16.73;;;2.90;99.90;;;;;;5309048;27;20320;-74
2021/01/24 10:36:21;;;;;;;34.77;17.80;;;2.90;99.90;;;;;;5309427;27;20163;-74
2021/01/24 10:38:49;;;;;;;32.80;17.67;;;2.80;99.90;;;;;;5307500;27;20377;-74
2021/01/24 10:41:15;;;;;;;35.13;17.73;;;2.80;99.90;;;;;;5310830;27;20141;-74
2021/01/24 10:43:42;;;;;;;33.37;17.63;;;2.90;99.90;;;;;;5308892;27;20114;-74
2021/01/24 10:46:08;;;;;;;34.40;18.47;;;3.00;99.90;;;;;;5311156;27;20117;-74
2021/01/24 10:48:35;;;;;;;31.00;17.33;;;3.00;99.90;;;;;;5308835;27;20125;-74
2021/01/24 10:51:02;;;;;;;37.00;18.20;;;3.10;99.90;;;;;;5310640;27;20162;-74
2021/01/24 10:53:28;;;;;;;33.27;17.83;;;3.30;99.90;;;;;;5308276;27;20391;-74
2021/01/24 10:55:55;;;;;;;32.27;17.57;;;3.30;99.90;;;;;;5308653;27;20163;-74
2021/01/24 10:58:21;;;;;;;30.13;16.40;;;3.20;99.90;;;;;;5308753;27;20122;-74
2021/01/24 11:00:47;;;;;;;29.43;15.27;;;3.30;99.90;;;;;;5308843;27;20479;-74
2021/01/24 11:03:14;;;;;;;30.83;16.17;;;3.20;99.90;;;;;;5287980;27;20401;-74
2021/01/24 11:05:41;;;;;;;27.83;15.37;;;3.10;99.90;;;;;;5309725;27;20338;-74
2021/01/24 11:08:08;;;;;;;28.83;14.97;;;3.10;99.90;;;;;;5308508;27;20210;-73
2021/01/24 11:10:35;;;;;;;27.23;14.93;;;3.30;99.90;;;;;;5307910;27;20169;-73
2021/01/24 11:13:01;;;;;;;30.87;15.97;;;3.30;99.90;;;;;;5307641;27;20136;-73
2021/01/24 11:15:28;;;;;;;26.40;14.97;;;3.30;99.90;;;;;;5308390;27;20148;-73
2021/01/24 11:17:56;;;;;;;27.83;15.03;;;3.40;99.90;;;;;;5307819;27;20114;-72
2021/01/24 11:20:23;;;;;;;28.83;15.73;;;3.40;99.90;;;;;;5308734;27;20122;-73
2021/01/24 11:22:50;;;;;;;28.27;15.40;;;3.50;99.90;;;;;;5308227;27;20198;-73
2021/01/24 11:25:16;;;;;;;28.80;15.07;;;3.60;99.90;;;;;;5308874;27;20124;-74
2021/01/24 11:27:43;;;;;;;28.40;15.00;;;3.60;99.90;;;;;;5308616;27;20110;-73
2021/01/24 11:30:14;;;;;;;29.47;15.30;;;3.60;99.90;;;;;;5309391;27;20149;-73
2021/01/24 11:32:41;;;;;;;28.93;15.03;;;3.70;99.90;;;;;;5288400;27;20396;-72
2021/01/24 11:35:12;;;;;;;26.83;15.23;;;3.50;99.90;;;;;;5309216;27;20124;-70
2021/01/24 11:37:39;;;;;;;25.53;14.67;;;3.60;99.90;;;;;;5307695;27;20111;-71
2021/01/24 11:40:07;;;;;;;26.83;15.47;;;3.50;99.90;;;;;;5308540;27;20400;-71
2021/01/24 11:42:35;;;;;;;27.43;14.80;;;3.60;99.90;;;;;;5289147;27;20146;-71
2021/01/24 11:45:06;;;;;;;26.70;15.47;;;3.70;99.90;;;;;;5309249;27;20113;-71
2021/01/24 11:47:34;;;;;;;27.53;15.63;;;3.70;99.90;;;;;;5310090;27;20114;-71
2021/01/24 11:50:03;;;;;;;26.70;14.80;;;3.60;99.90;;;;;;5309711;27;20488;-71
2021/01/24 11:52:29;;;;;;;27.53;14.47;;;3.60;99.90;;;;;;5309786;27;20141;-72
2021/01/24 11:54:56;;;;;;;25.87;14.13;;;3.60;99.90;;;;;;5309873;27;20129;-72
2021/01/24 11:57:22;;;;;;;29.07;15.00;;;3.70;99.90;;;;;;5309370;27;20118;-72
2021/01/24 11:59:49;;;;;;;26.13;15.13;;;3.80;99.90;;;;;;5310280;27;20319;-70
2021/01/24 12:02:15;;;;;;;26.93;14.63;;;3.80;99.90;;;;;;5309886;27;20125;-70
2021/01/24 12:04:42;;;;;;;30.60;14.93;;;3.80;99.90;;;;;;5310451;27;20166;-71
2021/01/24 12:07:12;;;;;;;30.57;15.47;;;3.90;99.90;;;;;;5309706;27;20145;-71
2021/01/24 12:09:39;;;;;;;27.73;15.40;;;3.90;99.90;;;;;;5309580;27;20138;-71
2021/01/24 12:12:06;;;;;;;30.03;15.77;;;3.90;99.90;;;;;;5310132;27;20114;-69
2021/01/24 12:14:32;;;;;;;25.57;14.57;;;3.90;99.90;;;;;;5309534;27;20118;-72
2021/01/24 12:16:59;;;;;;;28.93;15.57;;;3.90;99.90;;;;;;5308872;27;20428;-72
2021/01/24 12:19:26;;;;;;;30.03;16.17;;;3.90;99.90;;;;;;5309707;27;20113;-72
2021/01/24 12:21:52;;;;;;;29.70;15.97;;;3.80;99.90;;;;;;5309608;27;20124;-72
2021/01/24 12:24:19;;;;;;;29.10;16.53;;;3.80;99.90;;;;;;5309583;27;20170;-71
2021/01/24 12:26:45;;;;;;;29.30;16.13;;;3.80;99.90;;;;;;5309020;27;20400;-71
2021/01/24 12:29:12;;;;;;;29.97;16.27;;;3.70;99.90;;;;;;5309578;27;20388;-73
2021/01/24 12:31:39;;;;;;;32.60;17.53;;;3.60;99.90;;;;;;5309742;27;20163;-73
2021/01/24 12:34:06;;;;;;;26.97;14.90;;;3.50;99.90;;;;;;5309351;27;20157;-72
2021/01/24 12:36:32;;;;;;;31.50;16.20;;;3.60;99.90;;;;;;5309786;27;20118;-71
2021/01/24 12:38:59;;;;;;;31.73;16.07;;;3.60;99.90;;;;;;5309396;27;20151;-72
2021/01/24 12:41:25;;;;;;;32.10;15.90;;;3.60;99.90;;;;;;5310746;27;20114;-72
2021/01/24 12:43:52;;;;;;;32.93;16.30;;;3.40;99.90;;;;;;5309516;27;20158;-72
2021/01/24 12:46:18;;;;;;;32.43;16.80;;;3.40;99.90;;;;;;5311441;27;20148;-72
2021/01/24 12:48:45;;;;;;;33.30;16.83;;;3.40;99.90;;;;;;5309622;27;20110;-71